Kremmling, CO

5:04 AM MDT on June 24, 2017 (GMT -0600)
Kremmling

Weather History for K20V - October, 2011

Change the Weather History Date:

Sunday, October 23, 2011

  Actual Average Record
Temperature  
Mean Temperature 42 °F -  
Max Temperature 64 °F - 75 °F (2003)
Min Temperature 19 °F - 3 °F (2008)
Degree Days  
Heating Degree Days 24    
Month to date heating degree days  
Cooling Degree Days 0    
Month to date cooling degree days  
Moisture  
Dew Point 17 °F    
Average Humidity 50    
Maximum Humidity 86    
Minimum Humidity 12    
Precipitation  
Precipitation 0.00 in - 0.05 in (2015)
Sea Level Pressure  
Sea Level Pressure 30.36 in    
Wind  
Wind Speed 2 mph (WSW)    
Max Wind Speed 14 mph    
Max Gust Speed 20 mph    
Visibility 10 miles    
Events      
T = Trace of Precipitation, MM = Missing Value Source: NWS Daily Summary

Daily Weather History Graph

Daily Weather History Graph

Search for Another Location

Airport or City:

Trip Planner

Search our weather history database for the weather conditions in past years. The results will help you decide how hot, cold, wet, or windy it might be!

Date:

Astronomy

Oct. 23, 2011 Rise Set
Actual Time 7:24 AM MDT 6:14 PM MDT
Civil Twilight 6:56 AM MDT 6:42 PM MDT
Nautical Twilight 6:25 AM MDT 7:13 PM MDT
Astronomical Twilight 5:53 AM MDT 7:45 PM MDT
Moon 3:34 AM MDT (10/23) 4:07 PM MDT (10/23)
Length of Visible Light 11h 45m
Length of Day
10h 50m
Waning Crescent, 14% of the Moon is Illuminated
Oct 23
Waning Crescent
Oct 26
New
Nov 2
First Quarter
Nov 10
Full
Nov 18
Last Quarter

Hourly Weather History & Observations

Time (MDT) Temp. Windchill Dew Point Humidity Pressure Visibility Wind Dir Wind Speed Gust Speed Precip Events Conditions
12:06 AM 30.2 °F - 19.4 °F 64% 30.36 in 10.0 mi Calm Calm - N/A   Clear
12:26 AM 30.2 °F - 19.4 °F 64% 30.36 in 10.0 mi Calm Calm - N/A   Clear
12:46 AM 28.4 °F - 19.4 °F 69% 30.36 in 10.0 mi Calm Calm - N/A   Clear
1:06 AM 30.2 °F - 21.2 °F 69% 30.36 in 10.0 mi Calm Calm - N/A   Clear
1:26 AM 30.2 °F - 21.2 °F 69% 30.37 in 10.0 mi Calm Calm - N/A   Clear
1:46 AM 26.6 °F - 17.6 °F 69% 30.37 in 10.0 mi Calm Calm - N/A   Clear
2:06 AM 28.4 °F - 19.4 °F 69% 30.37 in 10.0 mi Calm Calm - N/A   Clear
2:26 AM 28.4 °F - 19.4 °F 69% 30.38 in 10.0 mi Calm Calm - N/A   Clear
2:46 AM 26.6 °F - 21.2 °F 80% 30.38 in 10.0 mi Calm Calm - N/A   Clear
3:05 AM 24.8 °F - 19.4 °F 80% 30.38 in 10.0 mi Calm Calm - N/A   Clear
3:26 AM 26.6 °F - 19.4 °F 74% 30.38 in 10.0 mi Calm Calm - N/A   Clear
4:06 AM 23.0 °F - 17.6 °F 80% 30.39 in 10.0 mi Calm Calm - N/A   Clear
4:46 AM 21.2 °F - 15.8 °F 80% 30.39 in 10.0 mi Calm Calm - N/A   Clear
5:06 AM 23.0 °F - 17.6 °F 80% 30.40 in 10.0 mi Calm Calm - N/A   Clear
5:26 AM 23.0 °F - 17.6 °F 80% 30.40 in 10.0 mi Calm Calm - N/A   Clear
5:46 AM 21.2 °F - 14.0 °F 74% 30.40 in 10.0 mi Calm Calm - N/A   Clear
6:06 AM 21.2 °F - 15.8 °F 80% 30.40 in 10.0 mi Calm Calm - N/A   Clear
6:26 AM 21.2 °F - 17.6 °F 86% 30.41 in 10.0 mi Calm Calm - N/A   Clear
6:46 AM 21.2 °F - 15.8 °F 80% 30.41 in 10.0 mi Calm Calm - N/A   Clear
7:06 AM 19.4 °F - 12.2 °F 74% 30.41 in 10.0 mi Calm Calm - N/A   Clear
7:26 AM 19.4 °F - 15.8 °F 86% 30.41 in 10.0 mi Calm Calm - N/A   Clear
7:46 AM 21.2 °F - 15.8 °F 80% 30.42 in 10.0 mi Calm Calm - N/A   Clear
8:06 AM 23.0 °F - 17.6 °F 80% 30.42 in 10.0 mi Calm Calm - N/A   Clear
8:26 AM 26.6 °F - 19.4 °F 74% 30.43 in 10.0 mi Calm Calm - N/A   Clear
8:46 AM 28.4 °F - 21.2 °F 74% 30.43 in 10.0 mi Calm Calm - N/A   Clear
9:06 AM 30.2 °F - 21.2 °F 69% 30.43 in 10.0 mi Calm Calm - N/A   Clear
9:26 AM 32.0 °F - 21.2 °F 64% 30.43 in 10.0 mi Calm Calm - N/A   Clear
9:46 AM 33.8 °F - 21.2 °F 60% 30.43 in 10.0 mi Calm Calm - N/A   Clear
10:06 AM 35.6 °F - 23.0 °F 60% 30.42 in 10.0 mi Calm Calm - N/A   Clear
10:26 AM 37.4 °F - 23.0 °F 56% 30.41 in 10.0 mi Calm Calm - N/A   Clear
10:46 AM 41.0 °F - 21.2 °F 45% 30.41 in 10.0 mi Calm Calm - N/A   Clear
11:06 AM 44.6 °F - 21.2 °F 39% 30.40 in 10.0 mi Calm Calm - N/A   Clear
11:26 AM 50.0 °F - 21.2 °F 32% 30.39 in 10.0 mi Calm Calm - N/A   Clear
11:46 AM 50.0 °F - 21.2 °F 32% 30.38 in 10.0 mi Calm Calm - N/A   Clear
12:06 PM 53.6 °F - 21.2 °F 28% 30.37 in 10.0 mi Calm Calm - N/A   Clear
12:26 PM 55.4 °F - 21.2 °F 26% 30.36 in 10.0 mi South 3.5 mph - N/A   Clear
12:46 PM 55.4 °F - 19.4 °F 25% 30.34 in 10.0 mi SE 3.5 mph - N/A   Clear
1:06 PM 59.0 °F - 17.6 °F 20% 30.32 in 10.0 mi SW 8.1 mph - N/A   Clear
1:26 PM 60.8 °F - 15.8 °F 17% 30.31 in 10.0 mi WSW 6.9 mph - N/A   Clear
1:46 PM 60.8 °F - 14.0 °F 16% 30.31 in 10.0 mi WSW 8.1 mph - N/A   Clear
2:05 PM 62.6 °F - 14.0 °F 15% 30.30 in 10.0 mi SW 10.4 mph - N/A   Clear
2:26 PM 62.6 °F - 12.2 °F 14% 30.29 in 10.0 mi SW 13.8 mph 19.6 mph N/A   Clear
2:46 PM 64.4 °F - 12.2 °F 13% 30.28 in 10.0 mi SW 11.5 mph 17.3 mph N/A   Clear
3:06 PM 64.4 °F - 12.2 °F 13% 30.28 in 10.0 mi WSW 12.7 mph 19.6 mph N/A   Clear
3:26 PM 64.4 °F - 10.4 °F 12% 30.28 in 10.0 mi WSW 12.7 mph 18.4 mph N/A   Clear
3:46 PM 62.6 °F - 10.4 °F 13% 30.28 in 10.0 mi WSW 10.4 mph - N/A   Clear
4:06 PM 64.4 °F - 12.2 °F 13% 30.28 in 10.0 mi WSW 12.7 mph 18.4 mph N/A   Clear
4:26 PM 62.6 °F - 10.4 °F 13% 30.28 in 10.0 mi SW 6.9 mph - N/A   Clear
4:46 PM 62.6 °F - 10.4 °F 13% 30.28 in 10.0 mi SSW 8.1 mph - N/A   Clear
5:06 PM 62.6 °F - 10.4 °F 13% 30.28 in 10.0 mi SW 8.1 mph - N/A   Clear
5:26 PM 60.8 °F - 10.4 °F 14% 30.28 in 10.0 mi WSW 4.6 mph - N/A   Clear
5:46 PM 59.0 °F - 14.0 °F 17% 30.29 in 10.0 mi West 4.6 mph - N/A   Clear
6:06 PM 55.4 °F - 15.8 °F 21% 30.29 in 10.0 mi NNW 9.2 mph - N/A   Clear
6:26 PM 53.6 °F - 15.8 °F 22% 30.29 in 10.0 mi NNW 8.1 mph - N/A   Clear
6:46 PM 53.6 °F - 17.6 °F 24% 30.29 in 10.0 mi West 4.6 mph - N/A   Clear
7:06 PM 50.0 °F - 17.6 °F 28% 30.30 in 10.0 mi West 5.8 mph - N/A   Clear
7:26 PM 50.0 °F - 17.6 °F 28% 30.31 in 10.0 mi WNW 5.8 mph - N/A   Clear
7:45 PM 44.6 °F - 17.6 °F 34% 30.31 in 10.0 mi Calm Calm - N/A   Clear
8:06 PM 41.0 °F - 19.4 °F 42% 30.31 in 10.0 mi Calm Calm - N/A   Clear
8:26 PM 39.2 °F - 19.4 °F 45% 30.31 in 10.0 mi Calm Calm - N/A   Clear
8:45 PM 35.6 °F - 19.4 °F 52% 30.31 in 10.0 mi Calm Calm - N/A   Clear
9:06 PM 35.6 °F - 19.4 °F 52% 30.32 in 10.0 mi Calm Calm - N/A   Clear
9:26 PM 35.6 °F 31.7 °F 19.4 °F 52% 30.32 in 10.0 mi East 4.6 mph - N/A   Clear
9:46 PM 35.6 °F 32.8 °F 21.2 °F 56% 30.32 in 10.0 mi North 3.5 mph - N/A   Clear
10:06 PM 33.8 °F - 19.4 °F 56% 30.33 in 10.0 mi Calm Calm - N/A   Clear
10:26 PM 33.8 °F - 19.4 °F 56% 30.33 in 10.0 mi Calm Calm - N/A   Clear
10:45 PM 32.0 °F - 19.4 °F 60% 30.33 in 10.0 mi Calm Calm - N/A   Clear
11:06 PM 30.2 °F - 19.4 °F 64% 30.33 in 10.0 mi Calm Calm - N/A   Clear
11:26 PM 30.2 °F - 19.4 °F 64% 30.33 in 10.0 mi Calm Calm - N/A   Clear
11:46 PM 30.2 °F - 19.4 °F 64% 30.33 in 10.0 mi Calm Calm - N/A   Clear